Time;durP1;ratioP1;P1;durP2;ratioP2;P2;SDS_P1;SDS_P2;PMS_P1;PMS_P2;Temp;Humidity;BMP_temperature;BMP_pressure;BME280_temperature;BME280_humidity;BME280_pressure;Samples;Min_cycle;Max_cycle;Signal;HPM_P1;HPM_P2
2023/03/22 00:00:34;;;;;;;22.17;8.63;;;;;;;;;;5115412;27;20053;-74
2023/03/22 00:03:00;;;;;;;23.63;9.57;;;;;;;;;;5115588;27;20114;-74
2023/03/22 00:05:26;;;;;;;25.88;8.52;;;;;;;;;;5115576;27;20039;-74
2023/03/22 00:07:56;;;;;;;23.90;8.10;;;;;;;;;;5098118;27;20126;-74
2023/03/22 00:10:24;;;;;;;18.42;8.45;;;;;;;;;;5099019;27;20043;-74
2023/03/22 00:12:50;;;;;;;32.95;8.70;;;;;;;;;;5081580;27;20046;-74
2023/03/22 00:15:16;;;;;;;24.27;8.10;;;;;;;;;;5115450;27;20467;-74
2023/03/22 00:17:43;;;;;;;26.80;8.38;;;;;;;;;;5115171;27;20065;-74
2023/03/22 00:20:10;;;;;;;21.08;7.57;;;;;;;;;;5114930;27;20092;-74
2023/03/22 00:22:36;;;;;;;22.75;8.38;;;;;;;;;;5115303;27;20118;-74
2023/03/22 00:25:03;;;;;;;20.95;8.75;;;;;;;;;;5115072;27;20027;-74
2023/03/22 00:27:29;;;;;;;23.98;8.82;;;;;;;;;;5115327;27;20039;-74
2023/03/22 00:29:55;;;;;;;18.80;7.78;;;;;;;;;;5114942;27;20071;-74
2023/03/22 00:32:21;;;;;;;28.83;7.53;;;;;;;;;;5115031;27;20504;-74
2023/03/22 00:34:47;;;;;;;23.05;7.97;;;;;;;;;;5115035;27;20039;-74
2023/03/22 00:37:15;;;;;;;22.02;7.22;;;;;;;;;;5098404;27;20410;-74
2023/03/22 00:39:41;;;;;;;24.38;6.72;;;;;;;;;;5114899;27;20043;-74
2023/03/22 00:42:07;;;;;;;25.45;7.80;;;;;;;;;;5115040;27;20035;-74
2023/03/22 00:44:34;;;;;;;18.33;6.15;;;;;;;;;;5114854;27;20035;-74
2023/03/22 00:47:00;;;;;;;23.48;6.30;;;;;;;;;;5115221;27;20043;-74
2023/03/22 00:49:26;;;;;;;19.33;6.78;;;;;;;;;;5115158;27;20422;-74
2023/03/22 00:51:52;;;;;;;17.95;5.47;;;;;;;;;;5115113;27;20088;-74
2023/03/22 00:54:19;;;;;;;15.50;5.25;;;;;;;;;;5098067;27;20111;-74
2023/03/22 00:56:45;;;;;;;20.73;5.20;;;;;;;;;;5114857;27;20471;-74
2023/03/22 00:59:11;;;;;;;12.65;4.40;;;;;;;;;;5114799;28;20483;-70
2023/03/22 01:01:38;;;;;;;21.02;5.07;;;;;;;;;;5114487;28;20035;-70
2023/03/22 01:04:04;;;;;;;13.98;4.43;;;;;;;;;;5099849;27;20091;-70
2023/03/22 01:06:31;;;;;;;17.73;4.63;;;;;;;;;;5121181;27;20110;-70
2023/03/22 01:08:57;;;;;;;16.02;4.00;;;;;;;;;;5121330;27;20046;-70
2023/03/22 01:11:24;;;;;;;18.63;3.92;;;;;;;;;;5104680;27;20074;-70
2023/03/22 01:13:50;;;;;;;24.33;4.93;;;;;;;;;;5121662;27;20394;-70
2023/03/22 01:16:16;;;;;;;24.30;4.28;;;;;;;;;;5121220;27;20043;-70
2023/03/22 01:18:42;;;;;;;14.05;4.18;;;;;;;;;;5121153;27;20041;-70
2023/03/22 01:21:09;;;;;;;15.65;3.35;;;;;;;;;;5121137;27;20032;-70
2023/03/22 01:23:35;;;;;;;18.33;4.50;;;;;;;;;;5121309;27;20359;-70
2023/03/22 01:26:01;;;;;;;20.77;4.75;;;;;;;;;;5120858;27;20043;-70
2023/03/22 01:28:28;;;;;;;10.05;3.00;;;;;;;;;;5121248;27;20033;-70
2023/03/22 01:30:54;;;;;;;18.73;3.30;;;;;;;;;;5121583;27;20122;-70
2023/03/22 01:33:21;;;;;;;14.32;3.17;;;;;;;;;;5104108;27;20126;-70
2023/03/22 01:35:47;;;;;;;13.57;3.78;;;;;;;;;;5121214;27;20035;-70
2023/03/22 01:38:13;;;;;;;14.48;3.60;;;;;;;;;;5137054;27;20039;-70
2023/03/22 01:40:39;;;;;;;13.13;3.33;;;;;;;;;;5124828;27;20035;-74
2023/03/22 01:43:11;;;;;;;14.57;2.40;;;;;;;;;;5103888;27;20067;-74
2023/03/22 01:45:39;;;;;;;13.43;3.60;;;;;;;;;;5121091;27;20038;-75
2023/03/22 01:48:10;;;;;;;13.50;2.72;;;;;;;;;;5120975;27;20067;-74
2023/03/22 01:50:37;;;;;;;17.97;2.67;;;;;;;;;;5121423;27;20383;-74
2023/03/22 01:53:05;;;;;;;18.60;2.83;;;;;;;;;;5121291;27;20053;-74
2023/03/22 01:55:32;;;;;;;11.02;2.83;;;;;;;;;;5120981;27;20031;-74
2023/03/22 01:57:59;;;;;;;9.40;2.70;;;;;;;;;;5121304;27;20039;-74
2023/03/22 02:00:25;;;;;;;11.30;2.83;;;;;;;;;;5120615;27;20117;-74
2023/03/22 02:02:52;;;;;;;13.50;2.83;;;;;;;;;;5104134;27;20508;-74
2023/03/22 02:05:21;;;;;;;14.65;2.80;;;;;;;;;;5120635;27;20037;-74
2023/03/22 02:07:47;;;;;;;12.30;2.90;;;;;;;;;;5103780;27;20047;-74
2023/03/22 02:10:15;;;;;;;16.63;3.63;;;;;;;;;;5120926;27;20406;-74
2023/03/22 02:13:00;;;;;;;17.33;3.05;;;;;;;;;;5121369;27;20054;-74
2023/03/22 02:15:30;;;;;;;15.38;2.60;;;;;;;;;;5118907;28;20043;-74
2023/03/22 02:18:05;;;;;;;15.20;3.92;;;;;;;;;;5117749;27;20054;-74
2023/03/22 02:20:57;;;;;;;10.60;3.05;;;;;;;;;;5111365;27;20046;-74
2023/03/22 02:23:38;;;;;;;16.88;2.70;;;;;;;;;;5117942;27;20035;-74
2023/03/22 02:26:10;;;;;;;11.70;2.80;;;;;;;;;;5117659;27;20122;-74
2023/03/22 02:28:46;;;;;;;9.13;2.67;;;;;;;;;;5117915;27;20118;-70
2023/03/22 02:31:31;;;;;;;10.95;3.08;;;;;;;;;;5117283;27;20043;-73
2023/03/22 02:34:17;;;;;;;12.60;2.97;;;;;;;;;;5097524;27;20039;-74
2023/03/22 02:36:46;;;;;;;17.05;2.95;;;;;;;;;;5117420;27;20043;-74
2023/03/22 02:39:28;;;;;;;16.88;3.00;;;;;;;;;;5117156;27;20579;-74
2023/03/22 02:42:20;;;;;;;13.57;3.25;;;;;;;;;;5100393;27;20433;-74
2023/03/22 02:44:53;;;;;;;9.95;2.85;;;;;;;;;;5064012;27;20096;-74
2023/03/22 02:47:24;;;;;;;20.30;3.17;;;;;;;;;;5117195;27;20471;-74
2023/03/22 02:50:08;;;;;;;17.65;3.67;;;;;;;;;;5117032;27;20525;-74
2023/03/22 02:52:39;;;;;;;11.45;3.13;;;;;;;;;;5097969;27;20438;-74
2023/03/22 02:55:10;;;;;;;15.38;3.25;;;;;;;;;;5100388;27;20126;-74
2023/03/22 02:57:52;;;;;;;12.50;3.15;;;;;;;;;;5117351;27;20051;-74
2023/03/22 03:00:18;;;;;;;21.67;3.40;;;;;;;;;;5116710;27;20054;-74
2023/03/22 03:02:50;;;;;;;21.40;3.60;;;;;;;;;;5116634;27;20065;-74
2023/03/22 03:05:17;;;;;;;14.52;3.05;;;;;;;;;;5133032;27;20054;-74
2023/03/22 03:07:46;;;;;;;17.77;3.67;;;;;;;;;;5113896;27;20039;-74
2023/03/22 03:10:14;;;;;;;21.60;3.53;;;;;;;;;;5099798;27;20042;-74
2023/03/22 03:12:40;;;;;;;13.70;3.78;;;;;;;;;;5116969;27;21498;-74
2023/03/22 03:15:25;;;;;;;15.82;3.17;;;;;;;;;;5116901;27;20420;-74
2023/03/22 03:17:51;;;;;;;11.32;2.92;;;;;;;;;;5116485;27;20053;-74
2023/03/22 03:20:33;;;;;;;10.60;2.95;;;;;;;;;;5116301;27;20243;-74
2023/03/22 03:23:15;;;;;;;18.08;3.97;;;;;;;;;;5116871;27;20080;-74
2023/03/22 03:25:56;;;;;;;25.52;3.97;;;;;;;;;;5116433;27;20039;-74
2023/03/22 03:28:36;;;;;;;15.93;3.13;;;;;;;;;;5115977;27;20035;-74
2023/03/22 03:31:09;;;;;;;17.88;3.40;;;;;;;;;;5114108;27;20042;-74
2023/03/22 03:33:38;;;;;;;16.15;3.53;;;;;;;;;;5116510;27;20461;-74
2023/03/22 03:36:07;;;;;;;13.43;4.30;;;;;;;;;;5115893;27;20494;-74
2023/03/22 03:38:36;;;;;;;12.27;3.00;;;;;;;;;;5116085;27;20036;-74
2023/03/22 03:41:04;;;;;;;20.67;3.30;;;;;;;;;;5115988;27;20122;-74
2023/03/22 03:43:31;;;;;;;19.27;4.03;;;;;;;;;;5113842;27;20031;-74
2023/03/22 03:45:57;;;;;;;13.95;2.78;;;;;;;;;;5115886;27;20035;-74
2023/03/22 03:48:29;;;;;;;12.27;2.70;;;;;;;;;;5115727;27;20070;-72
2023/03/22 03:50:56;;;;;;;17.25;4.50;;;;;;;;;;5115876;27;20050;-73
2023/03/22 03:53:22;;;;;;;14.38;2.88;;;;;;;;;;5116102;27;20031;-73
2023/03/22 03:55:48;;;;;;;15.40;3.40;;;;;;;;;;5115616;27;20088;-74
2023/03/22 03:58:15;;;;;;;21.27;2.85;;;;;;;;;;5115808;27;20055;-74
2023/03/22 04:00:42;;;;;;;14.40;3.50;;;;;;;;;;5096380;27;20543;-74
2023/03/22 04:03:08;;;;;;;14.82;2.97;;;;;;;;;;5115787;27;20031;-74
2023/03/22 04:05:34;;;;;;;9.27;2.80;;;;;;;;;;5124686;27;20036;-74
2023/03/22 04:08:00;;;;;;;16.65;3.80;;;;;;;;;;5115587;27;20436;-74
2023/03/22 04:10:27;;;;;;;12.25;3.78;;;;;;;;;;5115610;27;20074;-74
2023/03/22 04:12:53;;;;;;;19.40;3.58;;;;;;;;;;5115522;27;20043;-74
2023/03/22 04:15:19;;;;;;;16.67;3.08;;;;;;;;;;5098633;27;20050;-74
2023/03/22 04:17:45;;;;;;;17.30;3.22;;;;;;;;;;5098460;27;20191;-74
2023/03/22 04:20:12;;;;;;;8.95;2.78;;;;;;;;;;5098271;27;20528;-74
2023/03/22 04:22:39;;;;;;;12.68;4.22;;;;;;;;;;5113798;27;20031;-74
2023/03/22 04:25:10;;;;;;;11.98;3.00;;;;;;;;;;5115431;27;20555;-74
2023/03/22 04:27:36;;;;;;;12.40;2.63;;;;;;;;;;5115091;27;20042;-74
2023/03/22 04:30:03;;;;;;;12.32;3.22;;;;;;;;;;5121359;27;20039;-74
2023/03/22 04:32:29;;;;;;;12.35;3.30;;;;;;;;;;5098573;27;20050;-74
2023/03/22 04:34:55;;;;;;;16.15;3.40;;;;;;;;;;5115144;27;20047;-74
2023/03/22 04:37:25;;;;;;;22.00;6.03;;;;;;;;;;5098281;27;20035;-73
2023/03/22 04:39:52;;;;;;;19.83;3.78;;;;;;;;;;5112194;27;20051;-73
2023/03/22 04:42:19;;;;;;;12.77;3.70;;;;;;;;;;5115127;27;20035;-74
2023/03/22 04:44:45;;;;;;;15.57;4.72;;;;;;;;;;5098016;27;20039;-73
2023/03/22 04:47:11;;;;;;;14.55;3.92;;;;;;;;;;5114753;27;20036;-73
2023/03/22 04:49:37;;;;;;;12.73;4.20;;;;;;;;;;5098135;27;20427;-73
2023/03/22 04:52:04;;;;;;;21.20;5.00;;;;;;;;;;5115033;27;20035;-73
2023/03/22 04:54:30;;;;;;;13.43;4.60;;;;;;;;;;5114866;27;20395;-73
2023/03/22 04:56:56;;;;;;;17.10;5.03;;;;;;;;;;5114899;27;20038;-73
2023/03/22 04:59:22;;;;;;;19.38;6.15;;;;;;;;;;5114866;27;20027;-71
2023/03/22 05:01:49;;;;;;;17.40;7.35;;;;;;;;;;5097628;27;20112;-73
2023/03/22 05:04:15;;;;;;;15.43;6.05;;;;;;;;;;5115051;28;20077;-73
2023/03/22 05:06:42;;;;;;;15.40;7.07;;;;;;;;;;5114656;28;20440;-73
2023/03/22 05:09:08;;;;;;;13.82;7.25;;;;;;;;;;5114521;28;20115;-74
2023/03/22 05:11:35;;;;;;;23.95;7.63;;;;;;;;;;5114660;28;20031;-69
2023/03/22 05:14:01;;;;;;;21.58;7.13;;;;;;;;;;5114925;28;20050;-70
2023/03/22 05:16:27;;;;;;;19.33;8.25;;;;;;;;;;5114369;27;20507;-69
2023/03/22 05:18:53;;;;;;;16.50;7.57;;;;;;;;;;5130916;27;20087;-70
2023/03/22 05:21:26;;;;;;;22.33;8.52;;;;;;;;;;5097207;28;20035;-70
2023/03/22 05:23:53;;;;;;;17.00;7.38;;;;;;;;;;5112091;28;20503;-74
2023/03/22 05:26:23;;;;;;;21.58;7.50;;;;;;;;;;5113566;28;20035;-73
2023/03/22 05:28:50;;;;;;;21.75;8.15;;;;;;;;;;5114466;28;20031;-74
2023/03/22 05:31:16;;;;;;;18.88;8.55;;;;;;;;;;5114124;28;20050;-73
2023/03/22 05:33:42;;;;;;;22.45;9.15;;;;;;;;;;5097204;28;20145;-73
2023/03/22 05:36:10;;;;;;;21.77;8.98;;;;;;;;;;5113704;28;20035;-73
2023/03/22 05:38:37;;;;;;;33.13;10.13;;;;;;;;;;5114139;28;20043;-73
2023/03/22 05:41:03;;;;;;;21.30;8.85;;;;;;;;;;5114136;28;20100;-73
2023/03/22 05:43:29;;;;;;;21.63;8.68;;;;;;;;;;5114048;28;20031;-74
2023/03/22 05:45:55;;;;;;;25.60;9.57;;;;;;;;;;5114355;28;20467;-72
2023/03/22 05:48:21;;;;;;;20.23;8.80;;;;;;;;;;5114206;28;20523;-72
2023/03/22 05:50:47;;;;;;;28.30;10.35;;;;;;;;;;5114931;27;20138;-72
2023/03/22 05:53:13;;;;;;;29.77;9.88;;;;;;;;;;5118123;27;20035;-72
2023/03/22 05:55:39;;;;;;;25.90;9.20;;;;;;;;;;5118564;27;20161;-72
2023/03/22 05:58:07;;;;;;;22.48;9.38;;;;;;;;;;5151641;27;20031;-72
2023/03/22 06:00:34;;;;;;;26.77;10.63;;;;;;;;;;5129171;27;20039;-72
2023/03/22 06:03:02;;;;;;;25.90;10.60;;;;;;;;;;5101136;27;20071;-72
2023/03/22 06:05:35;;;;;;;23.50;9.90;;;;;;;;;;5100773;27;20520;-72
2023/03/22 06:08:01;;;;;;;28.45;11.05;;;;;;;;;;5117232;27;20125;-72
2023/03/22 06:10:27;;;;;;;28.00;12.00;;;;;;;;;;5117754;27;20074;-72
2023/03/22 06:12:54;;;;;;;22.65;10.93;;;;;;;;;;5118206;27;20055;-72
2023/03/22 06:15:20;;;;;;;23.40;11.25;;;;;;;;;;5117930;27;20482;-72
2023/03/22 06:17:46;;;;;;;22.35;10.27;;;;;;;;;;5117791;27;20035;-72
2023/03/22 06:20:14;;;;;;;28.95;11.93;;;;;;;;;;5117456;27;20035;-72
2023/03/22 06:22:40;;;;;;;27.52;11.38;;;;;;;;;;5100857;27;20110;-72
2023/03/22 06:25:07;;;;;;;23.85;10.50;;;;;;;;;;5100533;27;20043;-72
2023/03/22 06:27:34;;;;;;;30.77;12.00;;;;;;;;;;5117444;27;20035;-72
2023/03/22 06:30:00;;;;;;;31.95;12.00;;;;;;;;;;5117452;27;20045;-73
2023/03/22 06:32:26;;;;;;;25.55;11.25;;;;;;;;;;5117716;27;20231;-73
2023/03/22 06:34:53;;;;;;;25.67;11.80;;;;;;;;;;5117080;27;20042;-73
2023/03/22 06:37:19;;;;;;;24.15;11.15;;;;;;;;;;5100304;27;20392;-73
2023/03/22 06:39:45;;;;;;;26.58;11.40;;;;;;;;;;5117064;27;20082;-73
2023/03/22 06:42:11;;;;;;;28.33;13.15;;;;;;;;;;5117330;27;20562;-72
2023/03/22 06:44:41;;;;;;;37.50;13.07;;;;;;;;;;5116915;27;20028;-72
2023/03/22 06:47:07;;;;;;;25.73;11.10;;;;;;;;;;5117077;27;20039;-73
2023/03/22 06:49:33;;;;;;;26.98;12.30;;;;;;;;;;5116739;27;20137;-73
2023/03/22 06:51:59;;;;;;;29.65;12.38;;;;;;;;;;5116999;27;20035;-72
2023/03/22 06:54:26;;;;;;;28.42;11.60;;;;;;;;;;5116853;27;20027;-72
2023/03/22 06:56:52;;;;;;;22.85;10.80;;;;;;;;;;5117051;27;20393;-72
2023/03/22 06:59:18;;;;;;;27.58;11.52;;;;;;;;;;5117149;27;20058;-72
2023/03/22 07:01:44;;;;;;;21.77;10.98;;;;;;;;;;5116232;27;20071;-72
2023/03/22 07:04:10;;;;;;;29.10;12.60;;;;;;;;;;5134996;27;20043;-73
2023/03/22 07:06:36;;;;;;;31.10;11.43;;;;;;;;;;5099630;27;20044;-73
2023/03/22 07:09:04;;;;;;;29.38;11.15;;;;;;;;;;5132829;27;20038;-72
2023/03/22 07:11:30;;;;;;;25.38;10.90;;;;;;;;;;5125339;27;20047;-69
2023/03/22 07:13:56;;;;;;;30.02;11.93;;;;;;;;;;5110688;27;20442;-70
2023/03/22 07:16:22;;;;;;;29.30;11.32;;;;;;;;;;5100193;27;20043;-69
2023/03/22 07:18:48;;;;;;;31.25;11.23;;;;;;;;;;5117435;27;20035;-70
2023/03/22 07:21:14;;;;;;;25.27;11.15;;;;;;;;;;5147106;27;20043;-70
2023/03/22 07:23:40;;;;;;;29.70;10.55;;;;;;;;;;5080061;28;20494;-69
2023/03/22 07:26:06;;;;;;;24.08;10.73;;;;;;;;;;5096947;28;20488;-69
2023/03/22 07:28:33;;;;;;;22.85;10.35;;;;;;;;;;5096809;28;20038;-69
2023/03/22 07:31:03;;;;;;;25.48;9.95;;;;;;;;;;5097229;28;20043;-70
2023/03/22 07:33:29;;;;;;;26.13;9.95;;;;;;;;;;5102044;27;20514;-70
2023/03/22 07:35:56;;;;;;;24.17;10.27;;;;;;;;;;5117271;27;20130;-71
2023/03/22 07:38:22;;;;;;;30.50;10.95;;;;;;;;;;5151486;27;20046;-71
2023/03/22 07:40:49;;;;;;;23.67;9.48;;;;;;;;;;5138380;27;20537;-70
2023/03/22 07:43:15;;;;;;;22.25;9.63;;;;;;;;;;5079153;27;20047;-69
2023/03/22 07:45:41;;;;;;;25.08;10.20;;;;;;;;;;5115459;27;20409;-70
2023/03/22 07:48:10;;;;;;;21.17;8.80;;;;;;;;;;5110571;27;20061;-69
2023/03/22 07:50:36;;;;;;;25.00;9.27;;;;;;;;;;5115591;27;20039;-69
2023/03/22 07:53:03;;;;;;;24.17;8.98;;;;;;;;;;5115132;27;20058;-69
2023/03/22 07:55:29;;;;;;;19.83;8.27;;;;;;;;;;5113339;27;20047;-69
2023/03/22 07:57:56;;;;;;;20.23;8.48;;;;;;;;;;5139212;27;20039;-69
2023/03/22 08:00:22;;;;;;;25.25;8.25;;;;;;;;;;5114560;27;20043;-69
2023/03/22 08:02:48;;;;;;;20.40;7.95;;;;;;;;;;5122750;27;20028;-69
2023/03/22 08:05:14;;;;;;;22.48;7.53;;;;;;;;;;5097549;27;20035;-70
2023/03/22 08:07:41;;;;;;;18.98;7.60;;;;;;;;;;5097640;27;20071;-69
2023/03/22 08:10:07;;;;;;;28.10;8.32;;;;;;;;;;5097551;27;20047;-69
2023/03/22 08:12:34;;;;;;;23.20;8.18;;;;;;;;;;5114128;27;20089;-69
2023/03/22 08:15:00;;;;;;;22.85;8.10;;;;;;;;;;5121834;27;20035;-69
2023/03/22 08:17:28;;;;;;;23.70;8.15;;;;;;;;;;5138986;27;20043;-69
2023/03/22 08:19:54;;;;;;;21.63;7.03;;;;;;;;;;5114682;27;20039;-69
2023/03/22 08:22:24;;;;;;;21.50;8.00;;;;;;;;;;5098143;27;20463;-69
2023/03/22 08:24:54;;;;;;;23.42;7.65;;;;;;;;;;5116161;27;20035;-69
2023/03/22 08:27:20;;;;;;;20.52;7.28;;;;;;;;;;5098309;27;20034;-68
2023/03/22 08:29:47;;;;;;;18.98;6.95;;;;;;;;;;5125121;27;20376;-68
2023/03/22 08:32:13;;;;;;;19.80;6.35;;;;;;;;;;5115797;27;20043;-68
2023/03/22 08:34:40;;;;;;;19.25;6.32;;;;;;;;;;5097821;27;20421;-71
2023/03/22 08:37:07;;;;;;;13.77;6.78;;;;;;;;;;5115080;27;20038;-69
2023/03/22 08:39:33;;;;;;;20.48;6.32;;;;;;;;;;5114832;27;20035;-69
2023/03/22 08:41:59;;;;;;;14.70;5.72;;;;;;;;;;5116094;27;20092;-69
2023/03/22 08:44:26;;;;;;;20.92;6.25;;;;;;;;;;5098480;27;20035;-69
2023/03/22 08:46:52;;;;;;;19.08;6.35;;;;;;;;;;5115693;27;20054;-69
2023/03/22 08:49:18;;;;;;;21.73;6.40;;;;;;;;;;5098525;28;20035;-69
2023/03/22 08:51:44;;;;;;;24.30;6.25;;;;;;;;;;5116190;27;20043;-69
2023/03/22 08:54:11;;;;;;;19.98;5.53;;;;;;;;;;5115488;28;20042;-69
2023/03/22 08:56:37;;;;;;;17.90;6.40;;;;;;;;;;5115873;27;20039;-69
2023/03/22 08:59:03;;;;;;;16.55;6.03;;;;;;;;;;5099011;27;20035;-68
2023/03/22 09:01:30;;;;;;;15.27;5.40;;;;;;;;;;5114763;28;20075;-69
2023/03/22 09:03:56;;;;;;;20.58;5.68;;;;;;;;;;5113252;28;20035;-69
2023/03/22 09:06:22;;;;;;;16.80;5.93;;;;;;;;;;5114934;28;20046;-69
2023/03/22 09:08:51;;;;;;;18.27;5.88;;;;;;;;;;5121520;28;20067;-69
2023/03/22 09:11:17;;;;;;;19.60;5.90;;;;;;;;;;5114434;28;20156;-69
2023/03/22 09:13:43;;;;;;;20.23;6.05;;;;;;;;;;5141909;27;20041;-69
2023/03/22 09:16:09;;;;;;;23.35;6.43;;;;;;;;;;5115079;28;20035;-69
2023/03/22 09:18:39;;;;;;;18.48;5.70;;;;;;;;;;5114644;28;20039;-69
2023/03/22 09:21:06;;;;;;;18.95;6.05;;;;;;;;;;5112215;28;20035;-69
2023/03/22 09:23:33;;;;;;;23.33;5.30;;;;;;;;;;5114509;28;20036;-69
2023/03/22 09:26:00;;;;;;;18.08;4.75;;;;;;;;;;5117551;27;20043;-68
2023/03/22 09:28:26;;;;;;;22.27;5.90;;;;;;;;;;5118718;27;20039;-68
2023/03/22 09:30:53;;;;;;;18.13;5.20;;;;;;;;;;5118643;27;20530;-68
2023/03/22 09:33:19;;;;;;;17.73;5.28;;;;;;;;;;5118680;27;20050;-69
2023/03/22 09:35:45;;;;;;;16.52;5.18;;;;;;;;;;5137472;27;20053;-69
2023/03/22 09:38:11;;;;;;;19.67;6.80;;;;;;;;;;5118892;27;20063;-68
2023/03/22 09:40:41;;;;;;;21.33;6.03;;;;;;;;;;5118800;27;20095;-69
2023/03/22 09:43:08;;;;;;;16.65;5.80;;;;;;;;;;5140033;27;20395;-69
2023/03/22 09:45:38;;;;;;;17.63;6.75;;;;;;;;;;5118728;27;20114;-69
2023/03/22 09:48:17;;;;;;;20.58;6.45;;;;;;;;;;5127747;27;20145;-69
2023/03/22 09:50:45;;;;;;;16.73;5.78;;;;;;;;;;5118798;27;20042;-69
2023/03/22 09:53:13;;;;;;;17.30;5.50;;;;;;;;;;5118675;27;20501;-68
2023/03/22 09:55:50;;;;;;;16.38;5.82;;;;;;;;;;5118472;27;20050;-68
2023/03/22 09:58:25;;;;;;;18.80;6.00;;;;;;;;;;5118561;27;20035;-68
2023/03/22 10:00:55;;;;;;;14.93;5.93;;;;;;;;;;5116599;27;20046;-68
2023/03/22 10:03:35;;;;;;;14.25;5.70;;;;;;;;;;5118166;27;20066;-69
2023/03/22 10:06:01;;;;;;;16.73;5.80;;;;;;;;;;5113555;27;20028;-68
2023/03/22 10:08:27;;;;;;;20.63;5.90;;;;;;;;;;5099212;28;20055;-69
2023/03/22 10:10:53;;;;;;;14.77;5.07;;;;;;;;;;5091417;28;20036;-68
2023/03/22 10:13:28;;;;;;;19.65;6.07;;;;;;;;;;5111294;28;20129;-68
2023/03/22 10:15:55;;;;;;;17.98;6.57;;;;;;;;;;5093029;28;20036;-68
2023/03/22 10:18:24;;;;;;;10.10;4.85;;;;;;;;;;5110661;28;20046;-69
2023/03/22 10:20:59;;;;;;;15.32;5.00;;;;;;;;;;5111138;28;20042;-68
2023/03/22 10:23:35;;;;;;;11.10;4.97;;;;;;;;;;5108646;28;20123;-68
2023/03/22 10:26:02;;;;;;;10.07;4.90;;;;;;;;;;5072188;28;20042;-68
2023/03/22 10:28:31;;;;;;;15.90;5.10;;;;;;;;;;5074308;28;20043;-68
2023/03/22 10:30:57;;;;;;;20.35;5.00;;;;;;;;;;5090957;28;20048;-70
2023/03/22 10:33:29;;;;;;;19.20;5.53;;;;;;;;;;5091978;28;20436;-69
2023/03/22 10:35:56;;;;;;;18.85;4.43;;;;;;;;;;5073160;28;20388;-69
2023/03/22 10:38:24;;;;;;;22.75;5.45;;;;;;;;;;5110000;28;20036;-68
2023/03/22 10:40:52;;;;;;;19.27;5.88;;;;;;;;;;5090333;28;20507;-68
2023/03/22 10:43:35;;;;;;;12.57;5.45;;;;;;;;;;5110434;28;20040;-68
2023/03/22 10:46:02;;;;;;;15.95;5.50;;;;;;;;;;5116005;27;20493;-68
2023/03/22 10:48:31;;;;;;;11.82;5.18;;;;;;;;;;5110572;28;20067;-68
2023/03/22 10:50:58;;;;;;;20.08;5.03;;;;;;;;;;5090952;28;20047;-68
2023/03/22 10:53:24;;;;;;;18.73;5.88;;;;;;;;;;5110607;28;20062;-68
2023/03/22 10:55:50;;;;;;;13.60;4.95;;;;;;;;;;5087954;28;20097;-68
2023/03/22 10:58:18;;;;;;;18.10;6.13;;;;;;;;;;5089432;28;20036;-68
2023/03/22 11:00:49;;;;;;;16.45;6.13;;;;;;;;;;5092967;28;20036;-68
2023/03/22 11:03:39;;;;;;;19.83;5.68;;;;;;;;;;5092274;28;20090;-68
2023/03/22 11:06:13;;;;;;;16.83;5.57;;;;;;;;;;5085355;28;20059;-68
2023/03/22 11:08:48;;;;;;;16.92;6.63;;;;;;;;;;5110144;28;20055;-68
2023/03/22 11:11:16;;;;;;;17.83;5.78;;;;;;;;;;5072409;28;20089;-68
2023/03/22 11:13:42;;;;;;;17.33;7.28;;;;;;;;;;5110599;28;20028;-68
2023/03/22 11:16:08;;;;;;;14.73;6.15;;;;;;;;;;5090835;28;20101;-68
2023/03/22 11:18:34;;;;;;;15.68;5.68;;;;;;;;;;5110118;28;20036;-68
2023/03/22 11:21:06;;;;;;;18.08;5.65;;;;;;;;;;5076012;28;20036;-68
2023/03/22 11:23:33;;;;;;;16.55;5.50;;;;;;;;;;5090561;28;20043;-71
2023/03/22 11:26:08;;;;;;;16.75;6.32;;;;;;;;;;5109892;28;20081;-68
2023/03/22 11:28:36;;;;;;;15.05;5.85;;;;;;;;;;5076452;28;20100;-68
2023/03/22 11:31:04;;;;;;;19.92;5.90;;;;;;;;;;5093190;28;20048;-69
2023/03/22 11:33:30;;;;;;;12.15;5.97;;;;;;;;;;5093425;28;20102;-68
2023/03/22 11:35:57;;;;;;;19.08;7.35;;;;;;;;;;5093227;28;20081;-69
2023/03/22 11:38:35;;;;;;;17.50;6.18;;;;;;;;;;5092866;28;20108;-69
2023/03/22 11:41:02;;;;;;;22.13;6.45;;;;;;;;;;5092937;28;20044;-69
2023/03/22 11:43:36;;;;;;;11.00;5.55;;;;;;;;;;5092637;28;20036;-69
2023/03/22 11:46:03;;;;;;;23.20;7.80;;;;;;;;;;5076132;28;20036;-70
2023/03/22 11:48:31;;;;;;;15.20;5.57;;;;;;;;;;5093616;28;20036;-68
2023/03/22 11:51:05;;;;;;;11.65;6.43;;;;;;;;;;5094501;28;20058;-69
2023/03/22 11:53:32;;;;;;;13.88;5.90;;;;;;;;;;5093327;28;20032;-69
2023/03/22 11:55:59;;;;;;;16.52;6.10;;;;;;;;;;5092969;28;20545;-69
2023/03/22 11:58:27;;;;;;;15.55;6.07;;;;;;;;;;5093073;28;20058;-69
2023/03/22 12:00:58;;;;;;;15.30;6.18;;;;;;;;;;5092959;28;20047;-69
2023/03/22 12:03:27;;;;;;;11.55;5.78;;;;;;;;;;5092778;28;20509;-68
2023/03/22 12:05:53;;;;;;;11.70;5.95;;;;;;;;;;5092631;28;20536;-68
2023/03/22 12:08:28;;;;;;;21.38;6.00;;;;;;;;;;5089022;28;20054;-69
2023/03/22 12:11:10;;;;;;;20.05;6.55;;;;;;;;;;5112750;28;20047;-70
2023/03/22 12:13:56;;;;;;;16.02;6.60;;;;;;;;;;5112824;28;20032;-69
2023/03/22 12:16:26;;;;;;;17.38;6.55;;;;;;;;;;5112466;28;20052;-69
2023/03/22 12:19:04;;;;;;;14.32;6.32;;;;;;;;;;5112462;28;20515;-68
2023/03/22 12:21:30;;;;;;;18.77;7.95;;;;;;;;;;5112722;28;20044;-76
2023/03/22 12:23:59;;;;;;;13.88;6.53;;;;;;;;;;5112405;28;20407;-68
2023/03/22 12:26:27;;;;;;;16.90;6.57;;;;;;;;;;5112539;28;20039;-68
2023/03/22 12:28:59;;;;;;;12.35;6.30;;;;;;;;;;5112177;28;20126;-68
2023/03/22 12:31:29;;;;;;;18.15;7.55;;;;;;;;;;5095694;28;20044;-68
2023/03/22 12:34:07;;;;;;;13.18;6.43;;;;;;;;;;5112141;28;20108;-68
2023/03/22 12:36:37;;;;;;;14.68;6.57;;;;;;;;;;5110972;28;20043;-68
2023/03/22 12:39:04;;;;;;;15.98;7.03;;;;;;;;;;5095226;28;20044;-68
2023/03/22 12:41:38;;;;;;;18.25;7.78;;;;;;;;;;5112284;28;20051;-68
2023/03/22 12:44:16;;;;;;;15.23;6.75;;;;;;;;;;5112325;28;20487;-68
2023/03/22 12:46:49;;;;;;;15.52;7.15;;;;;;;;;;5096155;28;20043;-68
2023/03/22 12:49:20;;;;;;;16.88;8.00;;;;;;;;;;5095416;28;20478;-68
2023/03/22 12:51:46;;;;;;;22.55;7.40;;;;;;;;;;5112763;28;20031;-67
2023/03/22 12:54:14;;;;;;;15.18;7.40;;;;;;;;;;5110880;28;20040;-67
2023/03/22 12:56:43;;;;;;;16.02;8.00;;;;;;;;;;5110629;28;20036;-68
2023/03/22 12:59:16;;;;;;;13.45;7.22;;;;;;;;;;5111733;28;20123;-67
2023/03/22 13:01:52;;;;;;;15.18;7.70;;;;;;;;;;5111435;28;20036;-67
2023/03/22 13:04:30;;;;;;;16.83;7.82;;;;;;;;;;5110430;28;20110;-68
2023/03/22 13:07:07;;;;;;;17.77;7.40;;;;;;;;;;5112235;27;20104;-68
2023/03/22 13:09:33;;;;;;;16.58;7.63;;;;;;;;;;5112937;28;20095;-68
2023/03/22 13:12:17;;;;;;;14.20;7.35;;;;;;;;;;5096242;28;20039;-68
2023/03/22 13:14:54;;;;;;;11.77;7.53;;;;;;;;;;5113943;28;20039;-68
2023/03/22 13:17:24;;;;;;;17.60;7.95;;;;;;;;;;5113590;28;20043;-68
2023/03/22 13:19:59;;;;;;;14.65;8.43;;;;;;;;;;5137868;27;20039;-68
2023/03/22 13:22:27;;;;;;;17.25;7.70;;;;;;;;;;5137952;27;20047;-68
2023/03/22 13:25:17;;;;;;;17.48;7.93;;;;;;;;;;5121134;28;20172;-68
2023/03/22 13:27:56;;;;;;;21.55;7.70;;;;;;;;;;5109931;28;20064;-68
2023/03/22 13:30:25;;;;;;;21.83;7.97;;;;;;;;;;5114015;28;20038;-68
2023/03/22 13:32:52;;;;;;;15.38;8.00;;;;;;;;;;5097832;28;20038;-68
2023/03/22 13:35:26;;;;;;;19.48;8.45;;;;;;;;;;5115280;28;20486;-68
2023/03/22 13:37:53;;;;;;;16.70;7.82;;;;;;;;;;5133430;27;20035;-68
2023/03/22 13:40:23;;;;;;;17.40;9.23;;;;;;;;;;5114606;27;20035;-68
2023/03/22 13:42:50;;;;;;;17.17;8.05;;;;;;;;;;5114563;28;20043;-68
2023/03/22 13:45:30;;;;;;;15.00;7.97;;;;;;;;;;5113876;28;20070;-68
2023/03/22 13:48:11;;;;;;;18.88;8.90;;;;;;;;;;5130232;27;20027;-68
2023/03/22 13:50:37;;;;;;;18.33;8.77;;;;;;;;;;5095779;28;20047;-68
2023/03/22 13:53:06;;;;;;;20.63;8.57;;;;;;;;;;5114200;27;20078;-68
2023/03/22 13:55:40;;;;;;;20.50;9.65;;;;;;;;;;5114711;28;20368;-68
2023/03/22 13:58:10;;;;;;;17.98;8.80;;;;;;;;;;5121441;28;20046;-68
2023/03/22 14:00:38;;;;;;;22.38;8.65;;;;;;;;;;5121019;28;20032;-68
2023/03/22 14:03:08;;;;;;;19.45;8.38;;;;;;;;;;5114692;28;20049;-68
2023/03/22 14:05:35;;;;;;;17.52;8.77;;;;;;;;;;5139020;27;20039;-68
2023/03/22 14:08:03;;;;;;;18.90;9.27;;;;;;;;;;5113631;28;20563;-67
2023/03/22 14:10:44;;;;;;;17.95;8.45;;;;;;;;;;5123433;28;20181;-68
2023/03/22 14:13:16;;;;;;;19.95;8.88;;;;;;;;;;5116142;27;20047;-68
2023/03/22 14:15:56;;;;;;;17.95;9.23;;;;;;;;;;5143798;27;20058;-67
2023/03/22 14:18:25;;;;;;;20.70;9.73;;;;;;;;;;5099856;27;20035;-70
2023/03/22 14:21:02;;;;;;;22.58;9.38;;;;;;;;;;5143508;27;20099;-70
2023/03/22 14:23:48;;;;;;;19.17;9.30;;;;;;;;;;5125479;27;20114;-70
2023/03/22 14:26:19;;;;;;;21.27;9.18;;;;;;;;;;5117839;27;20035;-71
2023/03/22 14:28:46;;;;;;;23.80;9.20;;;;;;;;;;5117463;27;20080;-71
2023/03/22 14:31:30;;;;;;;20.27;10.68;;;;;;;;;;5101250;27;20107;-70
2023/03/22 14:34:01;;;;;;;19.13;9.20;;;;;;;;;;5115741;27;20461;-71
2023/03/22 14:36:30;;;;;;;22.08;8.85;;;;;;;;;;5127816;27;20407;-71
2023/03/22 14:38:56;;;;;;;18.30;9.23;;;;;;;;;;5100034;27;20039;-71